Time;durP1;ratioP1;P1;durP2;ratioP2;P2;SDS_P1;SDS_P2;PMS_P1;PMS_P2;Temp;Humidity;BMP_temperature;BMP_pressure;BME280_temperature;BME280_humidity;BME280_pressure;Samples;Min_cycle;Max_cycle;Signal;HPM_P1;HPM_P2
2023/01/22 00:00:29;;;;;;;0.70;0.70;;;;;;;-2.63;98.50;97517.88;29371;215;64009;-58
2023/01/22 00:01:01;;;;;;;1.37;1.37;;;;;;;-2.63;98.66;97518.69;29373;275;63008;-59
2023/01/22 00:01:33;;;;;;;2.35;2.25;;;;;;;-2.62;98.65;97512.34;29373;231;63004;-59
2023/01/22 00:02:05;;;;;;;0.80;0.80;;;;;;;-2.65;99.02;97519.91;29373;216;63009;-59
2023/01/22 00:02:36;;;;;;;0.90;0.90;;;;;;;-2.68;98.53;97520.28;29373;216;63005;-59
2023/01/22 00:03:07;;;;;;;0.80;0.80;;;;;;;-2.64;99.34;97522.34;29373;234;63009;-58
2023/01/22 00:03:40;;;;;;;0.75;0.75;;;;;;;-2.66;98.79;97518.25;29373;222;63005;-58
2023/01/22 00:04:11;;;;;;;0.70;0.70;;;;;;;-2.67;99.29;97516.59;29373;231;63013;-57
2023/01/22 00:04:43;;;;;;;0.70;0.70;;;;;;;-2.59;98.98;97508.50;29373;225;63005;-58
2023/01/22 00:05:14;;;;;;;1.17;1.17;;;;;;;-2.55;98.46;97520.38;29372;199;64009;-56
2023/01/22 00:05:46;;;;;;;4.78;1.45;;;;;;;-2.53;98.12;97518.34;29371;203;64009;-58
2023/01/22 00:06:18;;;;;;;1.10;1.00;;;;;;;-2.53;97.88;97508.53;29373;222;63009;-59
2023/01/22 00:06:50;;;;;;;0.70;0.70;;;;;;;-2.50;97.72;97512.66;29373;256;63004;-57
2023/01/22 00:07:22;;;;;;;0.70;0.70;;;;;;;-2.50;97.59;97510.00;29373;249;63009;-58
2023/01/22 00:07:54;;;;;;;4.32;4.12;;;;;;;-2.54;97.63;97517.53;29373;240;63004;-59
2023/01/22 00:08:26;;;;;;;0.88;0.88;;;;;;;-2.55;97.68;97504.44;29373;236;63008;-56
2023/01/22 00:09:02;;;;;;;1.45;1.42;;;;;;;-2.57;97.95;97517.09;29373;226;63004;-58
2023/01/22 00:09:33;;;;;;;0.93;0.93;;;;;;;-2.59;97.97;97508.50;29371;198;64014;-58
2023/01/22 00:10:08;;;;;;;1.20;1.20;;;;;;;-2.62;98.26;97514.19;29373;205;63001;-58
2023/01/22 00:10:47;;;;;;;0.80;0.80;;;;;;;-2.56;98.36;97513.41;29371;255;64004;-56
2023/01/22 00:11:21;;;;;;;1.42;1.33;;;;;;;-2.55;98.29;97515.06;29373;213;63000;-58
2023/01/22 00:11:52;;;;;;;0.80;0.80;;;;;;;-2.60;97.90;97512.16;29371;315;64013;-58
2023/01/22 00:12:23;;;;;;;3.17;3.05;;;;;;;-2.66;98.09;97515.59;29373;227;63005;-59
2023/01/22 00:12:54;;;;;;;1.00;1.00;;;;;;;-2.62;98.29;97508.87;29373;202;63009;-56
2023/01/22 00:13:27;;;;;;;1.15;1.15;;;;;;;-2.56;98.25;97513.41;29373;225;63004;-58
2023/01/22 00:13:58;;;;;;;2.12;2.03;;;;;;;-2.54;98.21;97503.41;29373;205;63009;-56
2023/01/22 00:14:30;;;;;;;6.28;5.70;;;;;;;-2.51;98.16;97500.37;29373;336;63000;-57
2023/01/22 00:15:02;;;;;;;0.70;0.70;;;;;;;-2.49;98.26;97498.34;29373;204;63009;-57
2023/01/22 00:15:37;;;;;;;0.80;0.80;;;;;;;-2.49;97.61;97504.47;29373;213;63004;-58
2023/01/22 00:16:14;;;;;;;0.70;0.70;;;;;;;-2.48;97.71;97505.31;29373;206;63008;-58
2023/01/22 00:16:46;;;;;;;0.70;0.70;;;;;;;-2.50;97.81;97513.47;29373;333;63018;-58
2023/01/22 00:17:17;;;;;;;1.30;0.93;;;;;;;-2.54;97.55;97506.09;29371;209;64014;-58
2023/01/22 00:17:49;;;;;;;1.12;1.00;;;;;;;-2.54;97.64;97512.22;29373;219;63005;-56
2023/01/22 00:18:20;;;;;;;0.90;0.90;;;;;;;-2.56;97.38;97503.63;29373;197;63009;-58
2023/01/22 00:18:52;;;;;;;0.70;0.70;;;;;;;-2.61;97.41;97505.22;29373;356;63005;-58
2023/01/22 00:19:23;;;;;;;0.70;0.70;;;;;;;-2.66;97.66;97510.28;29373;322;63009;-58
2023/01/22 00:19:54;;;;;;;0.82;0.82;;;;;;;-2.68;98.09;97512.31;29373;273;63005;-58
2023/01/22 00:20:25;;;;;;;1.75;1.23;;;;;;;-2.63;98.70;97507.25;29373;214;63011;-57
2023/01/22 00:20:57;;;;;;;2.00;1.90;;;;;;;-2.58;98.43;97502.16;29373;215;63004;-58
2023/01/22 00:21:28;;;;;;;0.70;0.70;;;;;;;-2.59;98.51;97503.19;29373;196;63009;-58
2023/01/22 00:21:59;;;;;;;1.00;1.00;;;;;;;-2.57;98.33;97506.47;29373;196;63004;-58
2023/01/22 00:22:30;;;;;;;0.70;0.70;;;;;;;-2.56;98.16;97502.78;29371;239;64013;-58
2023/01/22 00:23:02;;;;;;;0.98;0.98;;;;;;;-2.52;98.02;97496.91;29373;202;63004;-58
2023/01/22 00:23:34;;;;;;;0.70;0.70;;;;;;;-2.54;98.23;97493.63;29373;199;63009;-58
2023/01/22 00:24:07;;;;;;;8.07;7.47;;;;;;;-2.58;98.04;97499.50;29373;222;63005;-58
2023/01/22 00:24:41;;;;;;;0.70;0.70;;;;;;;-2.62;98.35;97496.41;29371;199;64014;-58
2023/01/22 00:25:12;;;;;;;0.80;0.80;;;;;;;-2.62;98.41;97503.56;29373;230;63005;-58
2023/01/22 00:25:44;;;;;;;0.90;0.90;;;;;;;-2.57;98.68;97501.16;29373;224;63012;-57
2023/01/22 00:26:16;;;;;;;1.92;1.80;;;;;;;-2.54;98.34;97498.09;29373;221;63014;-56
2023/01/22 00:26:48;;;;;;;1.12;1.12;;;;;;;-2.51;98.47;97500.37;29373;233;63022;-57
2023/01/22 00:27:19;;;;;;;3.72;1.87;;;;;;;-2.48;97.50;97494.69;29373;238;63005;-58
2023/01/22 00:27:50;;;;;;;0.75;0.75;;;;;;;-2.51;97.71;97493.22;29373;202;63009;-59
2023/01/22 00:28:21;;;;;;;0.70;0.70;;;;;;;-2.52;97.97;97493.41;29373;214;63004;-58
2023/01/22 00:28:52;;;;;;;2.47;2.35;;;;;;;-2.55;97.96;97501.78;29373;371;63009;-58
2023/01/22 00:29:24;;;;;;;0.85;0.85;;;;;;;-2.63;97.77;97496.62;29371;197;64009;-59
2023/01/22 00:29:55;;;;;;;0.70;0.70;;;;;;;-2.70;97.98;97497.38;29373;205;63009;-58
2023/01/22 00:30:27;;;;;;;0.80;0.80;;;;;;;-2.64;98.18;97500.28;29373;226;63000;-58
2023/01/22 00:31:02;;;;;;;0.98;0.98;;;;;;;-2.59;98.65;97504.00;29373;273;63008;-57
2023/01/22 00:31:34;;;;;;;1.27;1.27;;;;;;;-2.56;97.96;97503.63;29373;197;63005;-58
2023/01/22 00:32:08;;;;;;;0.70;0.70;;;;;;;-2.60;98.44;97498.88;29373;212;63009;-58
2023/01/22 00:32:42;;;;;;;0.70;0.70;;;;;;;-2.66;97.93;97497.00;29373;214;63005;-58
2023/01/22 00:33:14;;;;;;;1.27;1.27;;;;;;;-2.71;98.20;97495.75;29373;205;63009;-57
2023/01/22 00:33:46;;;;;;;0.80;0.80;;;;;;;-2.72;98.53;97493.28;29373;224;63008;-57
2023/01/22 00:34:17;;;;;;;0.70;0.70;;;;;;;-2.67;99.13;97496.19;29373;226;63009;-56
2023/01/22 00:34:51;;;;;;;0.90;0.90;;;;;;;-2.57;99.26;97486.03;29371;303;64009;-58
2023/01/22 00:35:23;;;;;;;3.80;3.45;;;;;;;-2.55;98.66;97485.84;29373;295;63009;-58
2023/01/22 00:36:02;;;;;;;0.70;0.70;;;;;;;-2.54;98.26;97490.97;29372;340;63004;-57
2023/01/22 00:36:33;;;;;;;0.70;0.70;;;;;;;-2.58;98.47;97483.56;29373;222;63009;-58
2023/01/22 00:37:05;;;;;;;0.70;0.70;;;;;;;-2.63;98.18;97501.94;29373;233;63004;-58
2023/01/22 00:37:36;;;;;;;0.70;0.70;;;;;;;-2.66;98.40;97495.16;29373;279;63009;-58
2023/01/22 00:38:07;;;;;;;0.70;0.70;;;;;;;-2.67;98.46;97490.03;29373;226;63004;-57
2023/01/22 00:38:38;;;;;;;0.65;0.65;;;;;;;-2.65;98.88;97498.63;29373;220;63009;-58
2023/01/22 00:39:10;;;;;;;0.90;0.90;;;;;;;-2.59;98.73;97492.56;29373;232;63005;-57
2023/01/22 00:39:41;;;;;;;0.80;0.80;;;;;;;-2.51;98.29;97487.91;29371;212;64014;-59
2023/01/22 00:40:16;;;;;;;0.77;0.77;;;;;;;-2.51;97.90;97495.06;29373;377;63005;-59
2023/01/22 00:40:50;;;;;;;0.70;0.70;;;;;;;-2.54;98.13;97490.12;29373;232;63009;-57
2023/01/22 00:41:21;;;;;;;0.70;0.70;;;;;;;-2.56;98.14;97493.00;29373;228;63005;-58
2023/01/22 00:41:56;;;;;;;0.60;0.60;;;;;;;-2.56;98.36;97502.78;29373;353;63009;-57
2023/01/22 00:42:27;;;;;;;0.70;0.70;;;;;;;-2.55;98.41;97488.50;29373;197;63005;-58
2023/01/22 00:42:58;;;;;;;0.70;0.70;;;;;;;-2.55;98.97;97486.66;29373;202;63009;-57
2023/01/22 00:43:31;;;;;;;0.75;0.75;;;;;;;-2.55;98.62;97488.50;29373;258;63004;-59
2023/01/22 00:44:02;;;;;;;0.70;0.70;;;;;;;-2.52;98.75;97493.41;29373;210;63013;-58
2023/01/22 00:44:33;;;;;;;0.70;0.70;;;;;;;-2.52;98.43;97490.75;29373;234;63004;-58
2023/01/22 00:45:07;;;;;;;0.70;0.70;;;;;;;-2.55;98.41;97488.50;29371;295;64013;-57
2023/01/22 00:45:41;;;;;;;0.70;0.70;;;;;;;-2.54;98.12;97496.28;29373;277;63004;-57
2023/01/22 00:46:15;;;;;;;1.30;1.30;;;;;;;-2.49;97.47;97485.06;29373;203;63014;-58
2023/01/22 00:46:46;;;;;;;1.00;1.00;;;;;;;-2.43;97.33;97493.06;29371;198;64009;-57
2023/01/22 00:47:18;;;;;;;2.05;1.45;;;;;;;-2.39;97.01;97493.47;29371;207;64014;-58
2023/01/22 00:47:50;;;;;;;0.70;0.70;;;;;;;-2.42;96.36;97491.22;29373;213;63005;-58
2023/01/22 00:48:21;;;;;;;0.70;0.70;;;;;;;-2.46;96.73;97498.78;29373;212;63009;-58
2023/01/22 00:48:53;;;;;;;1.20;1.20;;;;;;;-2.44;96.72;97495.94;29373;329;63009;-58
2023/01/22 00:49:24;;;;;;;8.90;7.55;;;;;;;-2.47;97.14;97491.81;29372;197;64009;-58
2023/01/22 00:49:55;;;;;;;0.70;0.70;;;;;;;-2.52;97.28;97486.28;29373;203;63005;-58
2023/01/22 00:50:27;;;;;;;1.05;1.05;;;;;;;-2.53;97.28;97494.44;29373;216;63009;-58
2023/01/22 00:50:58;;;;;;;0.70;0.70;;;;;;;-2.57;97.40;97491.34;29373;203;63004;-58
2023/01/22 00:51:32;;;;;;;0.70;0.70;;;;;;;-2.52;98.05;97488.94;29373;260;63009;-57
2023/01/22 00:52:04;;;;;;;0.90;0.90;;;;;;;-2.49;97.62;97487.72;29371;281;64009;-58
2023/01/22 00:52:36;;;;;;;0.80;0.80;;;;;;;-2.44;97.75;97490.62;29373;203;63009;-58
2023/01/22 00:53:08;;;;;;;0.70;0.70;;;;;;;-2.42;97.17;97499.19;29373;205;63004;-57
2023/01/22 00:53:43;;;;;;;2.00;1.90;;;;;;;-2.38;97.36;97489.81;29373;203;63008;-57
2023/01/22 00:54:14;;;;;;;1.00;1.00;;;;;;;-2.37;96.97;97491.44;29373;227;63004;-58
2023/01/22 00:54:47;;;;;;;0.80;0.80;;;;;;;-2.41;96.92;97490.19;29373;202;63009;-57
2023/01/22 00:55:18;;;;;;;0.70;0.70;;;;;;;-2.48;96.62;97484.03;29373;287;63005;-58
2023/01/22 00:55:55;;;;;;;0.70;0.70;;;;;;;-2.51;97.14;97489.75;29373;197;63009;-57
2023/01/22 00:56:27;;;;;;;1.45;1.45;;;;;;;-2.55;96.91;97488.50;29373;267;63005;-57
2023/01/22 00:56:58;;;;;;;5.15;4.90;;;;;;;-2.56;97.59;97492.16;29373;222;63019;-57
2023/01/22 00:57:30;;;;;;;0.80;0.80;;;;;;;-2.60;97.68;97494.37;29371;211;64009;-58
2023/01/22 00:58:01;;;;;;;0.70;0.70;;;;;;;-2.65;97.49;97498.63;29373;225;63009;-57
2023/01/22 00:58:33;;;;;;;1.02;1.02;;;;;;;-2.66;97.34;97497.00;29373;214;63004;-58
2023/01/22 00:59:09;;;;;;;0.85;0.85;;;;;;;-2.60;98.24;97493.56;29373;358;63009;-57
2023/01/22 00:59:40;;;;;;;0.60;0.60;;;;;;;-2.56;98.24;97486.84;29373;205;63004;-58
2023/01/22 01:00:13;;;;;;;0.70;0.70;;;;;;;-2.61;97.95;97484.78;29373;197;63009;-59
2023/01/22 01:00:45;;;;;;;0.70;0.70;;;;;;;-2.62;97.81;97492.94;29373;211;63007;-58
2023/01/22 01:01:16;;;;;;;0.68;0.68;;;;;;;-2.64;98.32;97489.66;29373;199;63009;-58
2023/01/22 01:01:48;;;;;;;0.70;0.70;;;;;;;-2.66;98.04;97503.13;29373;304;63012;-58
2023/01/22 01:02:20;;;;;;;0.80;0.80;;;;;;;-2.68;98.36;97493.72;29373;260;63009;-58
2023/01/22 01:03:43;;;;;;;0.70;0.70;;;;;;;-2.67;98.46;97490.88;29371;230;64013;-58
2023/01/22 01:04:14;;;;;;;0.70;0.70;;;;;;;-2.70;98.40;97492.06;29373;222;63005;-57
2023/01/22 01:04:45;;;;;;;0.70;0.70;;;;;;;-2.74;98.46;97498.78;29373;210;63009;-57
2023/01/22 01:05:17;;;;;;;0.70;0.70;;;;;;;-2.77;98.12;97493.84;29373;203;63004;-60
2023/01/22 01:05:48;;;;;;;1.17;1.17;;;;;;;-2.80;98.26;97496.09;29373;209;63009;-58
2023/01/22 01:06:21;;;;;;;0.70;0.70;;;;;;;-2.80;98.64;97499.59;29373;233;63004;-58
2023/01/22 01:06:52;;;;;;;0.70;0.70;;;;;;;-2.71;99.05;97500.22;29373;208;63009;-57
2023/01/22 01:07:24;;;;;;;0.80;0.80;;;;;;;-2.64;99.31;97489.66;29373;216;63004;-57
2023/01/22 01:07:55;;;;;;;1.23;1.23;;;;;;;-2.55;99.23;97488.50;29373;209;63008;-59
2023/01/22 01:08:30;;;;;;;0.90;0.90;;;;;;;-2.50;98.71;97492.22;29373;240;63004;-57
2023/01/22 01:09:01;;;;;;;0.70;0.70;;;;;;;-2.48;98.41;97494.69;29371;208;64014;-60
2023/01/22 01:09:33;;;;;;;0.60;0.60;;;;;;;-2.52;98.06;97499.56;29373;197;63005;-58
2023/01/22 01:10:06;;;;;;;0.70;0.70;;;;;;;-2.53;98.56;97491.78;29371;332;64013;-57
2023/01/22 01:10:37;;;;;;;0.90;0.90;;;;;;;-2.43;97.93;97494.91;29373;247;63005;-56
2023/01/22 01:11:12;;;;;;;1.33;1.25;;;;;;;-2.38;97.33;97489.81;29373;209;63009;-57
2023/01/22 01:11:44;;;;;;;1.40;1.40;;;;;;;-2.39;97.03;97493.47;29373;209;63005;-57
2023/01/22 01:12:15;;;;;;;0.70;0.70;;;;;;;-2.46;97.26;97492.66;29373;214;63027;-58
2023/01/22 01:12:46;;;;;;;0.70;0.70;;;;;;;-2.47;97.03;97501.63;29373;208;63004;-58
2023/01/22 01:13:18;;;;;;;0.70;0.70;;;;;;;-2.42;97.58;97499.19;29373;272;63009;-57
2023/01/22 01:13:51;;;;;;;0.70;0.70;;;;;;;-2.36;96.83;97501.06;29373;205;63015;-58
2023/01/22 01:15:29;;;;;;;0.86;0.86;;;;;;;-2.41;97.12;97495.50;88178;203;64004;-58
2023/01/22 01:16:04;;;;;;;1.50;1.40;;;;;;;-2.38;96.90;97501.25;29394;204;64009;-57
2023/01/22 01:16:36;;;;;;;0.70;0.70;;;;;;;-2.37;96.94;97492.25;29373;220;63005;-57
2023/01/22 01:17:07;;;;;;;0.90;0.90;;;;;;;-2.31;97.02;97495.97;29373;281;63009;-57
2023/01/22 01:17:38;;;;;;;0.70;0.70;;;;;;;-2.36;96.17;97493.91;29373;361;63005;-57
2023/01/22 01:18:11;;;;;;;0.60;0.60;;;;;;;-2.42;96.29;97493.87;29373;254;63009;-57
2023/01/22 01:18:43;;;;;;;0.70;0.70;;;;;;;-2.43;96.54;97500.22;29373;204;63005;-57
2023/01/22 01:19:16;;;;;;;0.70;0.70;;;;;;;-2.43;96.48;97497.56;29373;207;63009;-58
2023/01/22 01:19:47;;;;;;;1.00;1.00;;;;;;;-2.42;96.61;97496.53;29373;197;63004;-57
2023/01/22 01:20:18;;;;;;;0.70;0.70;;;;;;;-2.43;97.13;97497.56;29373;197;63017;-58
2023/01/22 01:20:54;;;;;;;0.70;0.70;;;;;;;-2.46;96.99;97492.66;29373;218;63004;-57
2023/01/22 01:21:27;;;;;;;0.70;0.70;;;;;;;-2.51;97.21;97498.53;29371;214;64013;-57
2023/01/22 01:21:58;;;;;;;0.70;0.70;;;;;;;-2.55;97.29;97493.81;29373;212;63000;-58
2023/01/22 01:22:29;;;;;;;2.15;2.05;;;;;;;-2.54;97.34;97500.75;29373;204;63009;-56
2023/01/22 01:23:00;;;;;;;0.70;0.70;;;;;;;-2.45;97.38;97496.94;29373;369;63005;-57
2023/01/22 01:23:33;;;;;;;0.80;0.80;;;;;;;-2.40;97.38;97499.81;29373;225;63009;-57
2023/01/22 01:24:05;;;;;;;0.70;0.70;;;;;;;-2.41;97.25;97496.31;29373;216;63005;-57
2023/01/22 01:24:37;;;;;;;0.80;0.80;;;;;;;-2.38;97.24;97500.44;29373;220;63009;-58
2023/01/22 01:25:08;;;;;;;0.70;0.70;;;;;;;-2.38;97.00;97505.75;29373;222;63005;-58
2023/01/22 01:25:41;;;;;;;0.60;0.60;;;;;;;-2.48;96.38;97495.50;29373;313;63009;-58
2023/01/22 01:26:14;;;;;;;0.60;0.60;;;;;;;-2.55;96.24;97493.81;29373;222;63019;-59
2023/01/22 01:26:46;;;;;;;0.60;0.60;;;;;;;-2.60;97.11;97502.34;29371;347;64013;-58
2023/01/22 01:27:18;;;;;;;0.70;0.70;;;;;;;-2.58;97.50;97504.81;29371;324;64009;-57
2023/01/22 01:27:49;;;;;;;0.70;0.70;;;;;;;-2.59;97.56;97505.84;29371;216;64013;-57
2023/01/22 01:28:23;;;;;;;0.82;0.82;;;;;;;-2.56;97.82;97494.81;29373;202;63004;-57
2023/01/22 01:28:55;;;;;;;0.70;0.70;;;;;;;-2.53;98.16;97497.09;29373;255;63009;-58
2023/01/22 01:30:32;;;;;;;0.67;0.67;;;;;;;-2.54;97.67;97496.28;88178;227;64005;-57
2023/01/22 01:31:06;;;;;;;0.70;0.70;;;;;;;-2.59;97.37;97497.88;29394;214;64009;-57
2023/01/22 01:31:37;;;;;;;0.70;0.70;;;;;;;-2.63;97.48;97501.94;29373;196;63006;-57
2023/01/22 01:32:09;;;;;;;0.70;0.70;;;;;;;-2.60;98.06;97496.22;29373;220;63009;-57
2023/01/22 01:32:40;;;;;;;0.70;0.70;;;;;;;-2.61;98.25;97486.63;29371;219;64008;-58
2023/01/22 01:33:12;;;;;;;0.70;0.70;;;;;;;-2.53;98.61;97487.28;29373;224;63008;-57
2023/01/22 01:33:43;;;;;;;1.15;1.15;;;;;;;-2.43;98.38;97487.75;29373;374;63005;-58
2023/01/22 01:34:15;;;;;;;0.95;0.95;;;;;;;-2.38;98.12;97489.81;29373;237;63009;-57
2023/01/22 01:34:48;;;;;;;0.90;0.90;;;;;;;-2.36;97.48;97487.78;29373;363;63008;-58
2023/01/22 01:35:20;;;;;;;0.70;0.70;;;;;;;-2.38;97.71;97479.16;29373;340;63009;-57
2023/01/22 01:36:05;;;;;;;0.70;0.70;;;;;;;-2.42;97.58;97491.22;29372;208;64005;-58
2023/01/22 01:36:36;;;;;;;0.70;0.70;;;;;;;-2.47;97.69;97491.81;29373;215;63009;-57
2023/01/22 01:37:08;;;;;;;0.70;0.70;;;;;;;-2.54;97.20;97490.97;29373;226;63005;-57
2023/01/22 01:37:39;;;;;;;0.70;0.70;;;;;;;-2.58;97.31;97486.22;29371;295;64013;-57
2023/01/22 01:38:10;;;;;;;0.70;0.70;;;;;;;-2.61;97.40;97483.97;29373;267;63004;-57
2023/01/22 01:38:43;;;;;;;0.70;0.70;;;;;;;-2.64;97.81;97487.00;29373;202;63020;-57
2023/01/22 01:39:14;;;;;;;0.60;0.60;;;;;;;-2.59;98.19;97487.25;29373;216;63004;-57
2023/01/22 01:39:46;;;;;;;0.60;0.60;;;;;;;-2.58;98.39;97489.69;29373;259;63009;-57
2023/01/22 01:40:18;;;;;;;0.60;0.60;;;;;;;-2.61;98.20;97487.44;29373;246;63004;-58
2023/01/22 01:40:52;;;;;;;0.60;0.60;;;;;;;-2.62;98.39;97492.94;29372;259;64009;-61
2023/01/22 01:41:26;;;;;;;0.70;0.70;;;;;;;-2.64;98.54;97500.28;29373;229;63005;-57
2023/01/22 01:41:57;;;;;;;1.77;1.67;;;;;;;-2.65;98.62;97488.00;29373;197;63009;-57
2023/01/22 01:42:34;;;;;;;0.70;0.70;;;;;;;-2.66;98.51;97491.69;29373;253;63005;-57
2023/01/22 01:43:13;;;;;;;0.70;0.70;;;;;;;-2.66;98.84;97494.34;29371;334;64013;-58
2023/01/22 01:43:44;;;;;;;0.60;0.60;;;;;;;-2.67;98.82;97492.69;29371;202;64009;-60
2023/01/22 01:44:23;;;;;;;0.70;0.70;;;;;;;-2.67;98.96;97490.03;29373;298;63009;-60
2023/01/22 01:45:20;;;;;;;0.70;0.70;;;;;;;-2.66;98.84;97492.50;29373;200;63005;-59
2023/01/22 01:45:52;;;;;;;0.60;0.60;;;;;;;-2.67;99.16;97492.69;29373;240;63004;-59
2023/01/22 01:46:25;;;;;;;0.60;0.60;;;;;;;-2.67;99.21;97495.34;29373;202;63009;-58
2023/01/22 01:47:29;;;;;;;0.70;0.70;;;;;;;-2.69;99.07;97495.56;29373;208;63004;-57
2023/01/22 01:48:37;;;;;;;1.42;1.33;;;;;;;-2.53;99.21;97491.78;29373;210;63012;-58
2023/01/22 01:49:34;;;;;;;0.70;0.70;;;;;;;-2.56;98.87;97490.34;29371;203;64009;-57
2023/01/22 01:50:07;;;;;;;0.75;0.75;;;;;;;-2.62;98.47;97493.75;29373;204;63009;-57
2023/01/22 01:50:42;;;;;;;0.68;0.68;;;;;;;-2.66;98.73;97491.69;29373;208;63005;-58
2023/01/22 01:51:39;;;;;;;0.70;0.70;;;;;;;-2.54;98.93;97490.12;29373;266;63009;-57
2023/01/22 01:52:13;;;;;;;0.70;0.70;;;;;;;-2.43;98.93;97489.59;29373;279;63005;-57
2023/01/22 01:52:45;;;;;;;0.70;0.70;;;;;;;-2.47;98.36;97485.69;29373;209;63017;-57
2023/01/22 01:53:17;;;;;;;0.70;0.70;;;;;;;-2.52;98.40;97483.63;29373;208;63004;-58
2023/01/22 01:53:50;;;;;;;0.70;0.70;;;;;;;-2.54;98.15;97484.81;29373;343;63009;-57
2023/01/22 01:54:21;;;;;;;0.70;0.70;;;;;;;-2.59;98.20;97487.25;29371;242;64001;-57
2023/01/22 01:54:56;;;;;;;0.62;0.62;;;;;;;-2.63;98.06;97486.00;29373;263;63009;-57
2023/01/22 01:55:30;;;;;;;1.10;1.10;;;;;;;-2.65;98.25;97486.19;29373;255;63010;-58
2023/01/22 01:56:08;;;;;;;0.70;0.70;;;;;;;-2.66;98.36;97484.53;29373;223;63009;-57
2023/01/22 01:56:46;;;;;;;0.98;0.98;;;;;;;-2.68;98.58;97499.03;29373;209;63005;-57
2023/01/22 01:57:23;;;;;;;0.70;0.70;;;;;;;-2.71;98.35;97484.28;29373;217;63009;-57
2023/01/22 01:57:59;;;;;;;0.70;0.70;;;;;;;-2.76;98.66;97492.84;29373;206;63005;-58
2023/01/22 01:58:33;;;;;;;0.68;0.68;;;;;;;-2.76;98.63;97492.03;29373;315;63009;-58
2023/01/22 01:59:12;;;;;;;1.00;1.00;;;;;;;-2.74;98.98;97495.31;29371;345;64009;-57
2023/01/22 01:59:47;;;;;;;0.70;0.70;;;;;;;-2.73;99.12;97486.31;29373;284;63009;-57
2023/01/22 02:01:27;;;;;;;0.71;0.71;;;;;;;-2.74;99.11;97490.81;88174;196;64004;-57
2023/01/22 02:02:02;;;;;;;0.60;0.60;;;;;;;-2.74;99.00;97490.81;29394;206;64009;-57
2023/01/22 02:02:33;;;;;;;1.23;1.15;;;;;;;-2.75;99.11;97489.19;29373;233;63005;-57
2023/01/22 02:03:05;;;;;;;1.12;1.12;;;;;;;-2.68;99.29;97483.09;29373;225;63009;-59
2023/01/22 02:03:38;;;;;;;0.60;0.60;;;;;;;-2.66;99.50;97478.41;29373;216;63005;-59
2023/01/22 02:04:09;;;;;;;0.70;0.70;;;;;;;-2.66;99.30;97491.69;29371;219;64013;-58
2023/01/22 02:04:42;;;;;;;0.70;0.70;;;;;;;-2.67;99.08;97490.03;29373;231;63005;-57
2023/01/22 02:05:14;;;;;;;0.70;0.70;;;;;;;-2.70;99.58;97486.75;29373;337;63009;-58
2023/01/22 02:05:45;;;;;;;0.70;0.70;;;;;;;-2.70;99.24;97485.94;29373;202;63004;-58
2023/01/22 02:06:18;;;;;;;0.60;0.60;;;;;;;-2.72;99.34;97485.31;29373;297;63009;-58
2023/01/22 02:06:49;;;;;;;0.70;0.70;;;;;;;-2.73;99.73;97481.84;29371;210;64009;-58
2023/01/22 02:07:21;;;;;;;0.60;0.60;;;;;;;-2.67;99.93;97487.38;29373;307;63009;-58
2023/01/22 02:07:52;;;;;;;0.70;0.70;;;;;;;-2.67;99.55;97490.03;29373;249;63004;-57
2023/01/22 02:08:24;;;;;;;0.70;0.70;;;;;;;-2.68;99.65;97494.53;29373;248;63009;-57
2023/01/22 02:08:57;;;;;;;0.70;0.70;;;;;;;-2.71;99.52;97493.09;29373;205;63005;-58
2023/01/22 02:09:28;;;;;;;0.70;0.70;;;;;;;-2.68;99.92;97488.41;29373;210;63009;-58
2023/01/22 02:10:03;;;;;;;0.70;0.70;;;;;;;-2.65;99.83;97488.00;29373;216;63018;-57
2023/01/22 02:10:36;;;;;;;0.70;0.70;;;;;;;-2.64;99.83;97479.03;29373;202;63009;-58
2023/01/22 02:11:08;;;;;;;0.70;0.70;;;;;;;-2.65;99.55;97490.66;29373;220;63015;-58
2023/01/22 02:11:41;;;;;;;0.70;0.70;;;;;;;-2.67;99.69;97490.03;29373;204;63009;-57
2023/01/22 02:12:13;;;;;;;0.68;0.68;;;;;;;-2.67;99.49;97492.69;29371;225;64009;-57
2023/01/22 02:12:44;;;;;;;0.70;0.70;;;;;;;-2.66;99.74;97486.37;29373;214;63009;-58
2023/01/22 02:13:21;;;;;;;0.70;0.70;;;;;;;-2.66;99.48;97491.69;29373;199;63004;-57
2023/01/22 02:14:12;;;;;;;0.70;0.70;;;;;;;-2.63;99.78;97493.97;29373;267;63009;-57
2023/01/22 02:14:45;;;;;;;0.70;0.70;;;;;;;-2.57;100.00;97477.25;29395;206;63004;-57
2023/01/22 02:15:17;;;;;;;0.70;0.70;;;;;;;-2.54;99.84;97479.50;29395;295;63008;-58
2023/01/22 02:17:31;;;;;;;0.70;0.70;;;;;;;-2.56;99.91;97476.22;88174;231;64005;-57
2023/01/22 02:18:06;;;;;;;0.70;0.70;;;;;;;-2.59;99.51;97471.31;29394;236;64009;-57
2023/01/22 02:18:38;;;;;;;0.70;0.70;;;;;;;-2.58;99.39;97483.56;29373;214;63010;-57
2023/01/22 02:19:10;;;;;;;0.70;0.70;;;;;;;-2.52;99.41;97483.63;29373;207;63009;-57
2023/01/22 02:19:45;;;;;;;0.70;0.70;;;;;;;-2.49;99.35;97479.75;29373;285;63005;-58
2023/01/22 02:20:17;;;;;;;0.70;0.70;;;;;;;-2.50;99.58;97480.75;29373;198;63009;-58
2023/01/22 02:21:00;;;;;;;0.70;0.70;;;;;;;-2.54;98.96;97474.19;29373;228;63004;-57
2023/01/22 02:21:40;;;;;;;0.70;0.70;;;;;;;-2.60;98.60;97482.94;29371;221;64013;-56
2023/01/22 02:22:20;;;;;;;0.70;0.70;;;;;;;-2.63;98.83;97478.84;29373;223;63009;-57
2023/01/22 02:22:52;;;;;;;2.45;2.35;;;;;;;-2.64;99.11;97479.03;29395;209;63009;-57
2023/01/22 02:23:25;;;;;;;0.70;0.70;;;;;;;-2.65;99.13;97488.00;29395;290;63004;-57
2023/01/22 02:23:57;;;;;;;0.70;0.70;;;;;;;-2.64;99.33;97492.31;29373;196;63008;-56
2023/01/22 02:24:31;;;;;;;3.60;3.35;;;;;;;-2.62;99.15;97483.13;29373;281;63008;-57
2023/01/22 02:25:05;;;;;;;0.70;0.70;;;;;;;-2.62;99.55;97487.63;29373;219;63009;-57
2023/01/22 02:25:36;;;;;;;0.70;0.70;;;;;;;-2.63;99.42;97480.66;29373;224;63005;-57
2023/01/22 02:26:07;;;;;;;0.60;0.60;;;;;;;-2.65;99.01;97485.34;29373;197;63009;-58
2023/01/22 02:26:40;;;;;;;0.70;0.70;;;;;;;-2.66;99.28;97491.69;29371;234;64009;-58
2023/01/22 02:27:11;;;;;;;0.70;0.70;;;;;;;-2.70;99.36;97481.44;29373;228;63014;-57
2023/01/22 02:27:43;;;;;;;0.60;0.60;;;;;;;-2.71;99.14;97479.81;29373;215;63005;-57
2023/01/22 02:28:14;;;;;;;0.68;0.68;;;;;;;-2.71;99.54;97478.97;29373;244;63009;-58
2023/01/22 02:28:47;;;;;;;0.70;0.70;;;;;;;-2.72;99.34;97478.16;29373;232;63004;-59
2023/01/22 02:29:18;;;;;;;0.70;0.70;;;;;;;-2.71;99.46;97479.81;29373;202;63009;-57
2023/01/22 02:29:49;;;;;;;0.70;0.70;;;;;;;-2.70;99.64;97484.09;29373;323;63004;-58
2023/01/22 02:30:21;;;;;;;0.68;0.68;;;;;;;-2.67;99.94;97474.09;29373;362;63009;-58
2023/01/22 02:32:01;;;;;;;0.70;0.70;;;;;;;-2.67;100.00;97474.94;88174;207;64004;-57
2023/01/22 02:32:33;;;;;;;0.68;0.68;;;;;;;-2.65;99.90;97477.38;29394;294;64009;-56
2023/01/22 02:33:04;;;;;;;0.70;0.70;;;;;;;-2.64;99.99;97473.72;29373;218;63004;-57
2023/01/22 02:33:35;;;;;;;0.70;0.70;;;;;;;-2.63;100.00;97470.87;29373;211;63017;-57
2023/01/22 02:34:08;;;;;;;0.70;0.70;;;;;;;-2.63;100.00;97475.34;29373;203;63004;-57
2023/01/22 02:34:40;;;;;;;0.65;0.65;;;;;;;-2.62;100.00;97477.00;29373;271;63009;-57
2023/01/22 02:35:12;;;;;;;0.70;0.70;;;;;;;-2.64;99.88;97468.41;29373;212;63009;-57
2023/01/22 02:35:43;;;;;;;0.70;0.70;;;;;;;-2.66;100.00;97481.06;29373;235;63008;-57
2023/01/22 02:36:15;;;;;;;0.65;0.65;;;;;;;-2.65;100.00;97480.03;29373;287;63004;-57
2023/01/22 02:36:46;;;;;;;0.65;0.65;;;;;;;-2.60;100.00;97467.81;29373;205;63009;-57
2023/01/22 02:37:17;;;;;;;0.70;0.70;;;;;;;-2.58;100.00;97470.28;29373;199;63005;-57
2023/01/22 02:37:48;;;;;;;0.70;0.70;;;;;;;-2.55;100.00;97473.38;29371;335;64014;-57
2023/01/22 02:38:19;;;;;;;0.70;0.70;;;;;;;-2.51;100.00;97473.81;29373;204;63005;-57
2023/01/22 02:38:51;;;;;;;0.73;0.73;;;;;;;-2.53;100.00;97475.84;29373;350;63019;-57
2023/01/22 02:39:22;;;;;;;0.70;0.70;;;;;;;-2.54;99.92;97482.16;29373;197;63012;-57
2023/01/22 02:39:54;;;;;;;0.70;0.70;;;;;;;-2.46;100.00;97471.37;29373;364;63009;-56
2023/01/22 02:40:28;;;;;;;0.70;0.70;;;;;;;-2.41;99.86;97468.94;29373;233;63005;-57
2023/01/22 02:41:00;;;;;;;0.70;0.70;;;;;;;-2.41;99.79;97474.25;29373;272;63009;-57
2023/01/22 02:41:31;;;;;;;0.70;0.70;;;;;;;-2.39;99.43;97467.72;29373;225;63004;-57
2023/01/22 02:42:04;;;;;;;0.70;0.70;;;;;;;-2.39;99.55;97474.88;29373;210;63025;-56
2023/01/22 02:42:36;;;;;;;0.70;0.70;;;;;;;-2.43;99.19;97474.47;29373;218;63004;-57
2023/01/22 02:43:07;;;;;;;0.60;0.60;;;;;;;-2.47;98.83;97475.88;29371;216;64013;-57
2023/01/22 02:43:38;;;;;;;0.70;0.70;;;;;;;-2.48;98.86;97476.06;29373;222;63004;-56
2023/01/22 02:44:09;;;;;;;0.80;0.80;;;;;;;-2.44;99.29;97477.31;29373;223;63009;-57
2023/01/22 02:44:41;;;;;;;0.70;0.70;;;;;;;-2.45;99.16;97473.03;29373;199;63015;-57